sensor_id;sensor_type;location;lat;lon;timestamp;pressure;altitude;pressure_sealevel;temperature;humidity
22872;BME280;11603;44.910;8.630;2022-09-29T00:01:31;98881.63;;;17.25;100.00
22872;BME280;11603;44.910;8.630;2022-09-29T00:03:57;98865.34;;;17.33;100.00
22872;BME280;11603;44.910;8.630;2022-09-29T00:06:22;98852.63;;;17.42;100.00
22872;BME280;11603;44.910;8.630;2022-09-29T00:08:48;98862.69;;;17.48;100.00
22872;BME280;11603;44.910;8.630;2022-09-29T00:11:16;98860.50;;;17.52;100.00
22872;BME280;11603;44.910;8.630;2022-09-29T00:13:44;98863.66;;;17.55;100.00
22872;BME280;11603;44.910;8.630;2022-09-29T00:16:10;98867.03;;;17.57;100.00
22872;BME280;11603;44.910;8.630;2022-09-29T00:18:36;98860.59;;;17.58;100.00
22872;BME280;11603;44.910;8.630;2022-09-29T00:21:05;98859.94;;;17.56;100.00
22872;BME280;11603;44.910;8.630;2022-09-29T00:23:32;98859.09;;;17.56;100.00
22872;BME280;11603;44.910;8.630;2022-09-29T00:26:20;98855.53;;;17.55;100.00
22872;BME280;11603;44.910;8.630;2022-09-29T00:28:53;98852.09;;;17.47;100.00
22872;BME280;11603;44.910;8.630;2022-09-29T00:31:28;98854.19;;;17.36;100.00
22872;BME280;11603;44.910;8.630;2022-09-29T00:33:54;98842.84;;;17.41;100.00
22872;BME280;11603;44.910;8.630;2022-09-29T00:36:21;98840.13;;;17.41;100.00
22872;BME280;11603;44.910;8.630;2022-09-29T00:38:47;98839.97;;;17.43;100.00
22872;BME280;11603;44.910;8.630;2022-09-29T00:41:25;98840.00;;;17.34;100.00
22872;BME280;11603;44.910;8.630;2022-09-29T00:49:32;98824.63;;;17.35;100.00
22872;BME280;11603;44.910;8.630;2022-09-29T00:52:16;98829.56;;;17.31;100.00
22872;BME280;11603;44.910;8.630;2022-09-29T00:54:49;98817.53;;;17.34;100.00
22872;BME280;11603;44.910;8.630;2022-09-29T00:57:19;98804.88;;;17.34;100.00
22872;BME280;11603;44.910;8.630;2022-09-29T01:02:18;98805.47;;;17.22;100.00
22872;BME280;11603;44.910;8.630;2022-09-29T01:04:46;98813.84;;;16.89;100.00
22872;BME280;11603;44.910;8.630;2022-09-29T01:07:12;98814.81;;;16.66;100.00
22872;BME280;11603;44.910;8.630;2022-09-29T01:09:39;98804.84;;;16.66;100.00
22872;BME280;11603;44.910;8.630;2022-09-29T01:12:07;98809.59;;;16.56;100.00
22872;BME280;11603;44.910;8.630;2022-09-29T01:14:36;98808.31;;;16.44;100.00
22872;BME280;11603;44.910;8.630;2022-09-29T01:17:03;98798.75;;;16.33;100.00
22872;BME280;11603;44.910;8.630;2022-09-29T01:42:03;98828.63;;;15.60;100.00
22872;BME280;11603;44.910;8.630;2022-09-29T01:44:36;98819.50;;;15.45;100.00
22872;BME280;11603;44.910;8.630;2022-09-29T01:47:11;98814.31;;;15.52;100.00
22872;BME280;11603;44.910;8.630;2022-09-29T01:49:41;98805.88;;;15.47;100.00
22872;BME280;11603;44.910;8.630;2022-09-29T01:52:17;98806.06;;;15.37;100.00
22872;BME280;11603;44.910;8.630;2022-09-29T01:55:02;98816.16;;;15.27;100.00
22872;BME280;11603;44.910;8.630;2022-09-29T01:57:53;98815.13;;;15.20;100.00
22872;BME280;11603;44.910;8.630;2022-09-29T02:00:20;98811.75;;;15.10;100.00
22872;BME280;11603;44.910;8.630;2022-09-29T02:02:53;98807.53;;;15.07;100.00
22872;BME280;11603;44.910;8.630;2022-09-29T02:05:47;98821.03;;;15.15;100.00
22872;BME280;11603;44.910;8.630;2022-09-29T02:08:25;98811.75;;;15.18;100.00
22872;BME280;11603;44.910;8.630;2022-09-29T02:13:25;98819.69;;;15.11;100.00
22872;BME280;11603;44.910;8.630;2022-09-29T02:15:54;98824.19;;;15.03;100.00
22872;BME280;11603;44.910;8.630;2022-09-29T02:18:27;98820.16;;;14.99;100.00
22872;BME280;11603;44.910;8.630;2022-09-29T02:20:54;98811.94;;;15.00;100.00
22872;BME280;11603;44.910;8.630;2022-09-29T02:23:19;98805.22;;;15.12;100.00
22872;BME280;11603;44.910;8.630;2022-09-29T02:25:46;98807.72;;;15.14;100.00
22872;BME280;11603;44.910;8.630;2022-09-29T02:28:15;98817.66;;;15.21;100.00
22872;BME280;11603;44.910;8.630;2022-09-29T02:30:41;98819.34;;;15.22;100.00
22872;BME280;11603;44.910;8.630;2022-09-29T02:33:20;98814.97;;;15.30;100.00
22872;BME280;11603;44.910;8.630;2022-09-29T02:38:29;98804.19;;;15.46;100.00
22872;BME280;11603;44.910;8.630;2022-09-29T02:41:05;98800.97;;;15.50;100.00
22872;BME280;11603;44.910;8.630;2022-09-29T02:43:52;98813.47;;;15.59;100.00
22872;BME280;11603;44.910;8.630;2022-09-29T02:46:41;98809.91;;;15.67;100.00
22872;BME280;11603;44.910;8.630;2022-09-29T02:51:47;98800.47;;;15.71;100.00
22872;BME280;11603;44.910;8.630;2022-09-29T02:59:36;98791.03;;;15.75;100.00
22872;BME280;11603;44.910;8.630;2022-09-29T03:02:04;98791.53;;;15.71;100.00
22872;BME280;11603;44.910;8.630;2022-09-29T03:04:30;98782.28;;;15.73;100.00
22872;BME280;11603;44.910;8.630;2022-09-29T03:06:55;98781.06;;;15.76;100.00
22872;BME280;11603;44.910;8.630;2022-09-29T03:09:21;98774.50;;;15.78;100.00
22872;BME280;11603;44.910;8.630;2022-09-29T03:11:46;98774.47;;;15.86;100.00
22872;BME280;11603;44.910;8.630;2022-09-29T03:14:12;98776.69;;;15.91;100.00
22872;BME280;11603;44.910;8.630;2022-09-29T03:16:37;98770.94;;;15.94;100.00
22872;BME280;11603;44.910;8.630;2022-09-29T03:19:04;98768.22;;;15.94;100.00
22872;BME280;11603;44.910;8.630;2022-09-29T03:21:33;98757.50;;;15.86;100.00
22872;BME280;11603;44.910;8.630;2022-09-29T03:24:00;98746.22;;;15.74;100.00
22872;BME280;11603;44.910;8.630;2022-09-29T03:26:25;98744.06;;;15.70;100.00
22872;BME280;11603;44.910;8.630;2022-09-29T03:28:51;98740.72;;;15.59;100.00
22872;BME280;11603;44.910;8.630;2022-09-29T03:31:17;98753.19;;;15.52;100.00
22872;BME280;11603;44.910;8.630;2022-09-29T03:33:43;98760.25;;;15.53;100.00
22872;BME280;11603;44.910;8.630;2022-09-29T03:36:09;98769.84;;;15.56;100.00
22872;BME280;11603;44.910;8.630;2022-09-29T03:38:36;98787.69;;;15.41;100.00
22872;BME280;11603;44.910;8.630;2022-09-29T03:41:02;98799.97;;;15.35;100.00
22872;BME280;11603;44.910;8.630;2022-09-29T03:43:27;98807.06;;;15.36;100.00
22872;BME280;11603;44.910;8.630;2022-09-29T03:45:54;98788.69;;;15.40;100.00
22872;BME280;11603;44.910;8.630;2022-09-29T03:48:21;98779.97;;;15.38;100.00
22872;BME280;11603;44.910;8.630;2022-09-29T03:50:47;98775.41;;;15.30;100.00
22872;BME280;11603;44.910;8.630;2022-09-29T03:53:14;98775.91;;;15.34;100.00
22872;BME280;11603;44.910;8.630;2022-09-29T03:55:40;98787.19;;;15.21;100.00
22872;BME280;11603;44.910;8.630;2022-09-29T03:58:05;98785.16;;;14.99;100.00
22872;BME280;11603;44.910;8.630;2022-09-29T04:00:31;98796.09;;;14.97;100.00
22872;BME280;11603;44.910;8.630;2022-09-29T04:02:57;98805.69;;;14.75;100.00
22872;BME280;11603;44.910;8.630;2022-09-29T04:05:23;98791.19;;;14.68;100.00
22872;BME280;11603;44.910;8.630;2022-09-29T04:07:49;98782.28;;;14.76;100.00
22872;BME280;11603;44.910;8.630;2022-09-29T04:10:15;98783.66;;;14.80;100.00
22872;BME280;11603;44.910;8.630;2022-09-29T04:12:40;98787.66;;;14.76;100.00
22872;BME280;11603;44.910;8.630;2022-09-29T04:15:06;98793.56;;;14.79;100.00
22872;BME280;11603;44.910;8.630;2022-09-29T04:17:32;98797.75;;;14.74;100.00
22872;BME280;11603;44.910;8.630;2022-09-29T04:19:57;98802.09;;;14.67;100.00
22872;BME280;11603;44.910;8.630;2022-09-29T04:22:23;98785.75;;;14.52;100.00
22872;BME280;11603;44.910;8.630;2022-09-29T04:24:48;98795.69;;;14.52;100.00
22872;BME280;11603;44.910;8.630;2022-09-29T04:27:15;98809.81;;;14.54;100.00
22872;BME280;11603;44.910;8.630;2022-09-29T04:29:41;98819.88;;;14.44;100.00
22872;BME280;11603;44.910;8.630;2022-09-29T04:32:06;98825.38;;;14.34;100.00
22872;BME280;11603;44.910;8.630;2022-09-29T04:34:33;98806.25;;;14.45;100.00
22872;BME280;11603;44.910;8.630;2022-09-29T04:36:59;98807.78;;;14.48;100.00
22872;BME280;11603;44.910;8.630;2022-09-29T04:39:25;98814.34;;;14.53;100.00
22872;BME280;11603;44.910;8.630;2022-09-29T04:41:51;98834.59;;;14.65;100.00
22872;BME280;11603;44.910;8.630;2022-09-29T04:44:17;98836.78;;;14.70;100.00
22872;BME280;11603;44.910;8.630;2022-09-29T04:46:48;98841.84;;;14.81;100.00
22872;BME280;11603;44.910;8.630;2022-09-29T04:49:14;98839.31;;;14.79;100.00
22872;BME280;11603;44.910;8.630;2022-09-29T04:51:40;98838.81;;;14.84;100.00
22872;BME280;11603;44.910;8.630;2022-09-29T04:54:05;98844.22;;;14.84;100.00
22872;BME280;11603;44.910;8.630;2022-09-29T04:56:31;98847.06;;;14.82;100.00
22872;BME280;11603;44.910;8.630;2022-09-29T04:58:57;98854.13;;;14.83;100.00
22872;BME280;11603;44.910;8.630;2022-09-29T05:01:23;98852.81;;;14.96;100.00
22872;BME280;11603;44.910;8.630;2022-09-29T05:03:49;98849.81;;;15.07;100.00
22872;BME280;11603;44.910;8.630;2022-09-29T05:06:15;98851.50;;;15.16;100.00
22872;BME280;11603;44.910;8.630;2022-09-29T05:08:41;98842.56;;;15.15;100.00
22872;BME280;11603;44.910;8.630;2022-09-29T05:11:08;98852.00;;;15.11;100.00
22872;BME280;11603;44.910;8.630;2022-09-29T05:13:34;98857.19;;;15.13;100.00
22872;BME280;11603;44.910;8.630;2022-09-29T05:16:00;98863.63;;;15.12;100.00
22872;BME280;11603;44.910;8.630;2022-09-29T05:18:26;98863.09;;;15.08;100.00
22872;BME280;11603;44.910;8.630;2022-09-29T05:20:51;98854.03;;;15.17;100.00
22872;BME280;11603;44.910;8.630;2022-09-29T05:23:17;98856.19;;;15.06;100.00
22872;BME280;11603;44.910;8.630;2022-09-29T05:25:43;98853.81;;;14.95;100.00
22872;BME280;11603;44.910;8.630;2022-09-29T05:28:10;98860.34;;;14.92;100.00
22872;BME280;11603;44.910;8.630;2022-09-29T05:30:37;98863.75;;;15.02;100.00
22872;BME280;11603;44.910;8.630;2022-09-29T05:33:03;98866.31;;;15.12;100.00
22872;BME280;11603;44.910;8.630;2022-09-29T05:35:29;98867.16;;;15.20;100.00
22872;BME280;11603;44.910;8.630;2022-09-29T05:37:55;98871.53;;;15.30;100.00
22872;BME280;11603;44.910;8.630;2022-09-29T05:40:20;98867.00;;;15.38;100.00
22872;BME280;11603;44.910;8.630;2022-09-29T05:42:49;98862.97;;;15.42;100.00
22872;BME280;11603;44.910;8.630;2022-09-29T05:45:16;98862.28;;;15.48;100.00
22872;BME280;11603;44.910;8.630;2022-09-29T05:47:42;98862.31;;;15.56;100.00
22872;BME280;11603;44.910;8.630;2022-09-29T05:50:09;98859.44;;;15.66;100.00
22872;BME280;11603;44.910;8.630;2022-09-29T05:52:36;98857.25;;;15.61;100.00
22872;BME280;11603;44.910;8.630;2022-09-29T05:55:01;98858.59;;;15.74;100.00
22872;BME280;11603;44.910;8.630;2022-09-29T05:57:27;98850.84;;;15.79;100.00
22872;BME280;11603;44.910;8.630;2022-09-29T05:59:53;98853.69;;;15.85;100.00
22872;BME280;11603;44.910;8.630;2022-09-29T06:02:18;98859.41;;;15.90;100.00
22872;BME280;11603;44.910;8.630;2022-09-29T06:04:44;98850.50;;;15.90;100.00
22872;BME280;11603;44.910;8.630;2022-09-29T06:07:09;98861.44;;;15.88;100.00
22872;BME280;11603;44.910;8.630;2022-09-29T06:09:35;98857.53;;;15.99;100.00
22872;BME280;11603;44.910;8.630;2022-09-29T06:12:02;98859.56;;;16.05;100.00
22872;BME280;11603;44.910;8.630;2022-09-29T06:14:27;98860.72;;;16.10;100.00
22872;BME280;11603;44.910;8.630;2022-09-29T06:16:53;98868.50;;;16.05;100.00
22872;BME280;11603;44.910;8.630;2022-09-29T06:19:19;98857.50;;;16.07;100.00
22872;BME280;11603;44.910;8.630;2022-09-29T06:21:44;98860.19;;;16.07;100.00
22872;BME280;11603;44.910;8.630;2022-09-29T06:24:10;98867.13;;;16.09;100.00
22872;BME280;11603;44.910;8.630;2022-09-29T06:26:36;98867.59;;;16.13;100.00
22872;BME280;11603;44.910;8.630;2022-09-29T06:29:02;98871.47;;;16.19;100.00
22872;BME280;11603;44.910;8.630;2022-09-29T06:31:29;98852.44;;;16.20;100.00
22872;BME280;11603;44.910;8.630;2022-09-29T06:34:01;98856.63;;;16.23;100.00
22872;BME280;11603;44.910;8.630;2022-09-29T06:36:33;98873.84;;;16.22;100.00
22872;BME280;11603;44.910;8.630;2022-09-29T06:39:18;98870.31;;;16.13;100.00
22872;BME280;11603;44.910;8.630;2022-09-29T06:41:44;98875.41;;;16.00;100.00
22872;BME280;11603;44.910;8.630;2022-09-29T06:44:16;98881.31;;;15.95;100.00
22872;BME280;11603;44.910;8.630;2022-09-29T06:46:42;98884.69;;;15.89;100.00
22872;BME280;11603;44.910;8.630;2022-09-29T06:49:10;98890.94;;;15.90;100.00
22872;BME280;11603;44.910;8.630;2022-09-29T06:51:36;98884.69;;;15.81;100.00
22872;BME280;11603;44.910;8.630;2022-09-29T06:54:02;98890.94;;;15.74;100.00
22872;BME280;11603;44.910;8.630;2022-09-29T06:56:27;98884.38;;;15.84;100.00
22872;BME280;11603;44.910;8.630;2022-09-29T06:58:57;98887.38;;;15.89;100.00
22872;BME280;11603;44.910;8.630;2022-09-29T07:01:25;98876.25;;;15.92;100.00
22872;BME280;11603;44.910;8.630;2022-09-29T07:03:51;98889.75;;;16.00;100.00
22872;BME280;11603;44.910;8.630;2022-09-29T07:06:16;98894.91;;;16.18;100.00
22872;BME280;11603;44.910;8.630;2022-09-29T07:08:42;98894.13;;;16.01;100.00
22872;BME280;11603;44.910;8.630;2022-09-29T07:11:08;98878.22;;;16.15;100.00
22872;BME280;11603;44.910;8.630;2022-09-29T07:13:34;98873.69;;;16.15;100.00
22872;BME280;11603;44.910;8.630;2022-09-29T07:16:08;98876.19;;;16.25;100.00
22872;BME280;11603;44.910;8.630;2022-09-29T07:18:35;98877.31;;;16.38;100.00
22872;BME280;11603;44.910;8.630;2022-09-29T07:21:06;98877.81;;;16.42;100.00
22872;BME280;11603;44.910;8.630;2022-09-29T07:23:32;98866.25;;;16.25;100.00
22872;BME280;11603;44.910;8.630;2022-09-29T07:25:57;98875.34;;;16.32;100.00
22872;BME280;11603;44.910;8.630;2022-09-29T07:28:22;98868.53;;;16.44;100.00
22872;BME280;11603;44.910;8.630;2022-09-29T07:30:58;98868.44;;;16.22;100.00
22872;BME280;11603;44.910;8.630;2022-09-29T07:33:24;98886.13;;;16.24;100.00
22872;BME280;11603;44.910;8.630;2022-09-29T07:35:53;98876.19;;;16.33;100.00
22872;BME280;11603;44.910;8.630;2022-09-29T07:38:19;98869.19;;;16.46;100.00
22872;BME280;11603;44.910;8.630;2022-09-29T07:40:44;98871.50;;;16.66;100.00
22872;BME280;11603;44.910;8.630;2022-09-29T07:43:10;98872.19;;;16.68;100.00
22872;BME280;11603;44.910;8.630;2022-09-29T07:45:36;98866.41;;;16.71;100.00
22872;BME280;11603;44.910;8.630;2022-09-29T07:48:01;98860.69;;;16.74;100.00
22872;BME280;11603;44.910;8.630;2022-09-29T07:50:27;98859.06;;;16.87;100.00
22872;BME280;11603;44.910;8.630;2022-09-29T07:52:52;98848.09;;;17.12;100.00
22872;BME280;11603;44.910;8.630;2022-09-29T07:55:18;98865.00;;;17.36;100.00
22872;BME280;11603;44.910;8.630;2022-09-29T07:57:48;98852.25;;;17.45;100.00
22872;BME280;11603;44.910;8.630;2022-09-29T08:00:14;98867.34;;;17.62;100.00
22872;BME280;11603;44.910;8.630;2022-09-29T08:02:41;98860.88;;;17.86;100.00
22872;BME280;11603;44.910;8.630;2022-09-29T08:05:08;98859.31;;;18.06;100.00
22872;BME280;11603;44.910;8.630;2022-09-29T08:07:33;98860.66;;;18.25;100.00
22872;BME280;11603;44.910;8.630;2022-09-29T08:09:59;98859.34;;;18.36;100.00
22872;BME280;11603;44.910;8.630;2022-09-29T08:12:25;98861.19;;;18.50;100.00
22872;BME280;11603;44.910;8.630;2022-09-29T08:14:51;98871.56;;;18.46;100.00
22872;BME280;11603;44.910;8.630;2022-09-29T08:17:17;98876.41;;;18.51;100.00
22872;BME280;11603;44.910;8.630;2022-09-29T08:19:42;98878.66;;;18.33;100.00
22872;BME280;11603;44.910;8.630;2022-09-29T08:22:08;98879.22;;;18.28;100.00
22872;BME280;11603;44.910;8.630;2022-09-29T08:24:33;98886.59;;;18.19;100.00
22872;BME280;11603;44.910;8.630;2022-09-29T08:27:02;98898.69;;;18.09;100.00
22872;BME280;11603;44.910;8.630;2022-09-29T08:29:29;98888.06;;;18.07;100.00
22872;BME280;11603;44.910;8.630;2022-09-29T08:31:55;98890.28;;;17.89;100.00
22872;BME280;11603;44.910;8.630;2022-09-29T08:34:21;98890.34;;;17.96;100.00
22872;BME280;11603;44.910;8.630;2022-09-29T08:36:46;98895.31;;;18.07;100.00
22872;BME280;11603;44.910;8.630;2022-09-29T08:39:12;98897.13;;;18.14;100.00
22872;BME280;11603;44.910;8.630;2022-09-29T08:44:35;98896.16;;;17.93;100.00
22872;BME280;11603;44.910;8.630;2022-09-29T08:50:36;98901.56;;;17.93;100.00
22872;BME280;11603;44.910;8.630;2022-09-29T08:53:13;98891.97;;;18.05;100.00
22872;BME280;11603;44.910;8.630;2022-09-29T08:55:44;98905.25;;;18.14;100.00
22872;BME280;11603;44.910;8.630;2022-09-29T08:58:12;98904.13;;;18.09;100.00
22872;BME280;11603;44.910;8.630;2022-09-29T09:00:44;98907.22;;;18.20;100.00
22872;BME280;11603;44.910;8.630;2022-09-29T09:16:51;98890.78;;;19.17;100.00
22872;BME280;11603;44.910;8.630;2022-09-29T09:22:24;98891.38;;;19.69;100.00
22872;BME280;11603;44.910;8.630;2022-09-29T09:25:05;98899.50;;;19.69;100.00
22872;BME280;11603;44.910;8.630;2022-09-29T09:27:40;98902.94;;;19.42;100.00
22872;BME280;11603;44.910;8.630;2022-09-29T09:30:12;98891.06;;;19.22;100.00
22872;BME280;11603;44.910;8.630;2022-09-29T09:32:53;98900.16;;;19.14;100.00
22872;BME280;11603;44.910;8.630;2022-09-29T09:35:52;98897.97;;;19.24;100.00
22872;BME280;11603;44.910;8.630;2022-09-29T09:38:24;98898.09;;;19.52;100.00
22872;BME280;11603;44.910;8.630;2022-09-29T09:40:54;98896.25;;;20.02;100.00
22872;BME280;11603;44.910;8.630;2022-09-29T09:43:30;98901.78;;;20.43;100.00
22872;BME280;11603;44.910;8.630;2022-09-29T09:48:45;98896.34;;;20.15;100.00
22872;BME280;11603;44.910;8.630;2022-09-29T09:51:32;98904.06;;;19.90;100.00
22872;BME280;11603;44.910;8.630;2022-09-29T09:54:03;98893.88;;;19.71;100.00
22872;BME280;11603;44.910;8.630;2022-09-29T09:56:58;98894.13;;;19.97;100.00
22872;BME280;11603;44.910;8.630;2022-09-29T09:59:46;98888.78;;;20.10;100.00
22872;BME280;11603;44.910;8.630;2022-09-29T10:02:20;98889.63;;;20.39;100.00
22872;BME280;11603;44.910;8.630;2022-09-29T10:04:50;98886.72;;;20.40;100.00
22872;BME280;11603;44.910;8.630;2022-09-29T10:07:22;98886.31;;;20.43;100.00
22872;BME280;11603;44.910;8.630;2022-09-29T10:09:48;98881.63;;;20.65;100.00
22872;BME280;11603;44.910;8.630;2022-09-29T10:12:20;98885.09;;;20.46;100.00
22872;BME280;11603;44.910;8.630;2022-09-29T10:15:03;98883.59;;;20.15;100.00
22872;BME280;11603;44.910;8.630;2022-09-29T10:17:35;98884.38;;;19.81;100.00
22872;BME280;11603;44.910;8.630;2022-09-29T10:20:06;98883.09;;;20.05;100.00
22872;BME280;11603;44.910;8.630;2022-09-29T10:22:33;98877.88;;;20.04;100.00
22872;BME280;11603;44.910;8.630;2022-09-29T10:27:41;98874.03;;;20.19;100.00
22872;BME280;11603;44.910;8.630;2022-09-29T10:30:32;98871.03;;;20.36;100.00
22872;BME280;11603;44.910;8.630;2022-09-29T10:33:01;98871.63;;;20.31;100.00
22872;BME280;11603;44.910;8.630;2022-09-29T10:35:32;98879.00;;;20.16;100.00
22872;BME280;11603;44.910;8.630;2022-09-29T10:38:23;98875.88;;;20.40;100.00
22872;BME280;11603;44.910;8.630;2022-09-29T10:40:57;98877.50;;;20.35;100.00
22872;BME280;11603;44.910;8.630;2022-09-29T10:43:33;98865.03;;;20.94;100.00
22872;BME280;11603;44.910;8.630;2022-09-29T10:45:59;98851.56;;;21.27;100.00
22872;BME280;11603;44.910;8.630;2022-09-29T10:48:26;98852.25;;;21.49;100.00
22872;BME280;11603;44.910;8.630;2022-09-29T10:50:58;98847.03;;;21.87;100.00
22872;BME280;11603;44.910;8.630;2022-09-29T10:53:34;98847.00;;;21.93;100.00
22872;BME280;11603;44.910;8.630;2022-09-29T10:56:08;98841.59;;;22.13;100.00
22872;BME280;11603;44.910;8.630;2022-09-29T10:58:43;98841.38;;;21.75;100.00
22872;BME280;11603;44.910;8.630;2022-09-29T11:01:16;98851.38;;;21.42;100.00
22872;BME280;11603;44.910;8.630;2022-09-29T11:03:47;98842.63;;;21.60;100.00
22872;BME280;11603;44.910;8.630;2022-09-29T11:06:14;98842.22;;;21.69;100.00
22872;BME280;11603;44.910;8.630;2022-09-29T11:11:58;98831.25;;;22.35;100.00
22872;BME280;11603;44.910;8.630;2022-09-29T11:14:41;98832.66;;;22.64;100.00
22872;BME280;11603;44.910;8.630;2022-09-29T11:17:37;98826.75;;;22.73;100.00
22872;BME280;11603;44.910;8.630;2022-09-29T11:20:08;98825.63;;;22.88;100.00
22872;BME280;11603;44.910;8.630;2022-09-29T11:28:31;98808.59;;;23.30;99.01
22872;BME280;11603;44.910;8.630;2022-09-29T11:36:18;98807.16;;;23.28;99.06
22872;BME280;11603;44.910;8.630;2022-09-29T11:38:56;98807.19;;;23.59;96.67
22872;BME280;11603;44.910;8.630;2022-09-29T11:44:42;98811.53;;;23.91;92.27
22872;BME280;11603;44.910;8.630;2022-09-29T11:47:20;98811.53;;;23.91;91.12
22872;BME280;11603;44.910;8.630;2022-09-29T11:50:08;98808.00;;;23.84;92.31
22872;BME280;11603;44.910;8.630;2022-09-29T12:03:51;98802.00;;;22.82;100.00
22872;BME280;11603;44.910;8.630;2022-09-29T12:06:27;98804.06;;;22.86;100.00
22872;BME280;11603;44.910;8.630;2022-09-29T12:16:57;98793.44;;;23.09;100.00
22872;BME280;11603;44.910;8.630;2022-09-29T12:19:27;98784.19;;;23.10;100.00
22872;BME280;11603;44.910;8.630;2022-09-29T12:21:56;98782.84;;;23.26;100.00
22872;BME280;11603;44.910;8.630;2022-09-29T12:24:42;98768.09;;;23.83;96.98
22872;BME280;11603;44.910;8.630;2022-09-29T12:27:35;98766.66;;;23.81;93.80
22872;BME280;11603;44.910;8.630;2022-09-29T12:30:19;98762.34;;;23.42;96.30
22872;BME280;11603;44.910;8.630;2022-09-29T12:32:50;98770.47;;;23.80;92.92
22872;BME280;11603;44.910;8.630;2022-09-29T12:35:23;98762.81;;;23.39;95.71
22872;BME280;11603;44.910;8.630;2022-09-29T12:38:11;98767.94;;;22.97;99.31
22872;BME280;11603;44.910;8.630;2022-09-29T12:43:44;98766.50;;;22.88;100.00
22872;BME280;11603;44.910;8.630;2022-09-29T12:46:32;98765.56;;;22.63;100.00
22872;BME280;11603;44.910;8.630;2022-09-29T12:49:17;98761.34;;;22.73;100.00
22872;BME280;11603;44.910;8.630;2022-09-29T12:51:50;98757.53;;;22.81;100.00
22872;BME280;11603;44.910;8.630;2022-09-29T12:56:55;98753.06;;;22.42;100.00
22872;BME280;11603;44.910;8.630;2022-09-29T12:59:37;98758.31;;;22.44;100.00
22872;BME280;11603;44.910;8.630;2022-09-29T13:10:41;98743.75;;;23.07;100.00
22872;BME280;11603;44.910;8.630;2022-09-29T13:21:42;98717.63;;;24.29;84.77
22872;BME280;11603;44.910;8.630;2022-09-29T13:24:34;98715.78;;;24.41;81.97
22872;BME280;11603;44.910;8.630;2022-09-29T13:30:16;98717.00;;;24.45;81.30
22872;BME280;11603;44.910;8.630;2022-09-29T13:32:49;98716.00;;;24.39;81.23
22872;BME280;11603;44.910;8.630;2022-09-29T13:35:22;98724.19;;;23.85;84.70
22872;BME280;11603;44.910;8.630;2022-09-29T13:38:16;98713.56;;;23.77;84.66
22872;BME280;11603;44.910;8.630;2022-09-29T13:41:09;98721.06;;;23.63;85.16
22872;BME280;11603;44.910;8.630;2022-09-29T13:51:56;98725.19;;;22.91;94.57
22872;BME280;11603;44.910;8.630;2022-09-29T13:57:00;98726.91;;;22.79;97.84
22872;BME280;11603;44.910;8.630;2022-09-29T13:59:26;98732.13;;;22.87;97.86
22872;BME280;11603;44.910;8.630;2022-09-29T14:01:55;98724.34;;;22.91;97.28
22872;BME280;11603;44.910;8.630;2022-09-29T14:10:17;98731.25;;;22.49;99.10
22872;BME280;11603;44.910;8.630;2022-09-29T14:12:49;98732.31;;;22.48;100.00
22872;BME280;11603;44.910;8.630;2022-09-29T14:15:17;98733.72;;;22.57;100.00
22872;BME280;11603;44.910;8.630;2022-09-29T14:17:48;98729.69;;;22.72;100.00
22872;BME280;11603;44.910;8.630;2022-09-29T14:20:23;98726.56;;;23.00;96.32
22872;BME280;11603;44.910;8.630;2022-09-29T14:23:01;98727.44;;;22.56;99.11
22872;BME280;11603;44.910;8.630;2022-09-29T14:28:04;98725.66;;;22.82;97.54
22872;BME280;11603;44.910;8.630;2022-09-29T14:32:59;98718.75;;;23.35;92.79
22872;BME280;11603;44.910;8.630;2022-09-29T14:38:01;98702.13;;;23.86;86.66
22872;BME280;11603;44.910;8.630;2022-09-29T14:40:27;98703.94;;;23.92;85.78
22872;BME280;11603;44.910;8.630;2022-09-29T14:43:15;98694.41;;;24.01;83.22
22872;BME280;11603;44.910;8.630;2022-09-29T14:46:00;98697.34;;;24.00;83.60
22872;BME280;11603;44.910;8.630;2022-09-29T14:51:57;98692.41;;;23.90;83.91
22872;BME280;11603;44.910;8.630;2022-09-29T14:57:24;98696.41;;;23.88;82.18
22872;BME280;11603;44.910;8.630;2022-09-29T15:00:04;98690.88;;;23.58;84.29
22872;BME280;11603;44.910;8.630;2022-09-29T15:02:31;98702.88;;;23.26;87.82
22872;BME280;11603;44.910;8.630;2022-09-29T15:05:11;98701.78;;;23.33;87.69
22872;BME280;11603;44.910;8.630;2022-09-29T15:07:40;98699.16;;;23.20;89.85
22872;BME280;11603;44.910;8.630;2022-09-29T15:10:19;98698.84;;;23.03;91.29
22872;BME280;11603;44.910;8.630;2022-09-29T15:12:46;98695.56;;;22.95;91.87
22872;BME280;11603;44.910;8.630;2022-09-29T15:15:47;98701.19;;;23.00;93.83
22872;BME280;11603;44.910;8.630;2022-09-29T15:21:08;98709.25;;;22.88;92.82
22872;BME280;11603;44.910;8.630;2022-09-29T15:26:25;98701.06;;;22.88;90.37
22872;BME280;11603;44.910;8.630;2022-09-29T15:28:54;98706.31;;;22.90;90.38
22872;BME280;11603;44.910;8.630;2022-09-29T15:31:27;98704.88;;;22.87;92.32
22872;BME280;11603;44.910;8.630;2022-09-29T15:33:53;98705.91;;;22.86;93.62
22872;BME280;11603;44.910;8.630;2022-09-29T15:36:19;98707.63;;;22.80;95.29
22872;BME280;11603;44.910;8.630;2022-09-29T15:38:50;98715.56;;;22.82;95.87
22872;BME280;11603;44.910;8.630;2022-09-29T15:41:18;98717.69;;;22.80;94.10
22872;BME280;11603;44.910;8.630;2022-09-29T15:43:56;98713.09;;;22.80;94.26
22872;BME280;11603;44.910;8.630;2022-09-29T15:46:35;98711.19;;;22.81;95.62
22872;BME280;11603;44.910;8.630;2022-09-29T15:51:30;98716.69;;;22.68;98.48
22872;BME280;11603;44.910;8.630;2022-09-29T15:53:56;98718.63;;;22.61;95.18
22872;BME280;11603;44.910;8.630;2022-09-29T15:56:24;98716.16;;;22.46;88.90
22872;BME280;11603;44.910;8.630;2022-09-29T15:58:50;98722.09;;;22.30;90.45
22872;BME280;11603;44.910;8.630;2022-09-29T16:01:15;98715.69;;;22.18;90.79
22872;BME280;11603;44.910;8.630;2022-09-29T16:03:44;98732.19;;;22.23;91.20